Latest Weather Observations for Liawenee

IDT60801

Issued at 6:35 pm EST Monday 21 April 2014 (issued every 30 minutes, with the page automatically refreshed every 10 minutes)

About weather observations | Map of weather stations | Latest weather observations for TAS | Other Formats
Station Details ID: 096033 Name: LIAWENEE Lat: -41.90 Lon: 146.67 Height: 1057.0 m
Data from the previous 72 hours. | See also: Recent months at Liawenee
Date/Time
EST
Temp
°C
App
Temp
°C
Dew
Point
Rel
Hum
%
Delta-T
°C
Wind Press
QNH
hPa
Press
MSL
hPa
Rain
since 9 am
mm
Dir
 
Spd
km/h
Gust
km/h
Spd
kts
Gust
kts
21/06:30pm 6.8 2.6 5.6 92 0.6 N 17 26 9 14 1011.9 - 5.2
21/06:00pm 6.6 2.8 5.6 93 0.5 N 15 26 8 14 1011.4 1011.3 5.0
21/05:30pm 6.2 2.0 5.6 96 0.3 N 17 26 9 14 1011.3 - 3.8
21/05:00pm 6.4 2.6 5.7 95 0.3 N 15 26 8 14 1011.6 - 3.6
21/04:30pm 6.6 3.2 5.9 95 0.3 NNE 13 20 7 11 1012.0 - 3.4
21/04:00pm 6.5 3.1 5.8 95 0.3 NNE 13 17 7 9 1012.4 - 2.6
21/03:30pm 6.6 3.9 5.6 93 0.5 N 9 17 5 9 1012.7 - 2.4
21/03:00pm 6.6 2.8 5.6 93 0.5 N 15 24 8 13 1013.1 1013.0 2.2
21/02:30pm 6.6 2.7 5.2 91 0.7 N 15 24 8 13 1013.6 - 2.2
21/02:00pm 7.0 3.6 5.9 93 0.5 N 13 20 7 11 1013.7 - 1.4
21/01:30pm 7.1 4.1 5.9 92 0.6 NNW 11 24 6 13 1014.1 - 1.4
21/01:00pm 7.0 3.5 5.6 91 0.7 NNW 13 26 7 14 1014.3 - 1.4
21/12:30pm 7.5 2.9 5.8 89 0.8 NNW 19 32 10 17 1014.6 - 0.0
21/12:00pm 8.8 5.4 5.9 82 1.4 NNW 13 28 7 15 1014.8 1014.8 0.0
21/11:30am 8.3 4.8 5.4 82 1.4 NNW 13 19 7 10 1015.4 - 0.0
21/11:00am 7.3 3.0 3.4 76 1.8 NE 15 19 8 10 1015.6 - 0.0
21/10:30am 8.1 4.9 4.9 80 1.5 NNW 11 19 6 10 1015.6 - 0.0
21/10:00am 6.2 2.8 1.7 73 1.9 NNE 9 19 5 10 1016.0 - 0.0
21/09:30am 6.4 2.2 3.9 84 1.1 NW 15 26 8 14 1016.2 - 0.0
21/09:00am 3.3 0.9 2.0 91 0.5 E 4 11 2 6 1016.4 1016.4 0.2
21/08:30am -0.6 -2.7 -1.0 97 0.1 CALM 0 0 0 0 1016.5 - 0.2
21/08:00am -2.8 -6.3 -3.2 97 0.0 W 6 9 3 5 1016.3 - 0.2
21/07:30am -4.1 -7.4 -4.6 96 0.0 SSW 4 7 2 4 1016.2 - 0.2
21/07:00am -4.8 -8.5 -4.9 99 -0.2 W 6 7 3 4 1016.1 - 0.2
21/06:30am -5.5 -8.2 -5.8 98 -0.1 CALM 0 0 0 0 1015.8 - 0.2
21/06:00am -6.3 -9.1 -6.7 97 -0.1 CALM 0 0 0 0 1015.6 1015.6 0.2
21/05:30am -6.4 -9.3 -7.5 92 0.1 N 0 0 0 0 1015.6 - 0.2
21/05:00am -4.8 -7.4 -5.2 97 -0.1 CALM 0 0 0 0 1015.4 - 0.2
21/04:30am -4.5 -7.9 -5.2 95 0.0 NW 4 7 2 4 1015.3 - 0.2
21/04:00am -3.8 -7.7 -4.3 96 0.0 NW 7 9 4 5 1015.4 - 0.2
21/03:30am -4.6 -8.4 -5.3 95 0.0 NNW 6 7 3 4 1015.1 - 0.2
21/03:00am -3.3 -7.5 -3.7 97 0.0 NW 9 9 5 5 1015.2 1015.1 0.2
21/02:30am -2.9 -7.0 -3.2 98 0.0 NW 9 11 5 6 1015.2 - 0.2
21/02:00am -2.8 -6.9 -3.2 97 0.0 WNW 9 11 5 6 1015.2 - 0.2
21/01:30am -1.9 -6.3 -2.5 96 0.1 WNW 11 13 6 7 1015.2 - 0.2
21/01:00am -2.5 -5.7 -3.8 91 0.3 WSW 4 6 2 3 1015.1 - 0.2
21/12:30am -1.4 -6.1 -2.0 96 0.2 W 13 15 7 8 1014.6 - 0.2
21/12:00am -1.6 -6.8 -2.4 94 0.2 WSW 15 20 8 11 1014.3 1014.2 0.2
 
Date/Time
EST
Temp
°C
App
Temp
°C
Dew
Point
Rel
Hum
%
Delta-T
°C
Wind Press
QNH
hPa
Press
MSL
hPa
Rain
since 9 am
mm
Dir
 
Spd
km/h
Gust
km/h
Spd
kts
Gust
kts
20/11:30pm -1.9 -4.6 -2.5 96 0.1 W 2 9 1 5 1014.6 - 0.2
20/11:00pm -1.8 -6.6 -2.9 92 0.3 SW 13 15 7 8 1014.3 - 0.2
20/10:30pm 0.3 -4.7 -1.1 90 0.5 W 15 17 8 9 1014.3 - 0.2
20/10:00pm 0.0 -3.9 -1.3 91 0.5 WNW 9 11 5 6 1014.3 - 0.2
20/09:30pm -0.2 -4.1 -1.5 91 0.5 W 9 11 5 6 1014.1 - 0.2
20/09:00pm 1.4 -3.9 -0.5 87 0.7 WSW 17 20 9 11 1013.9 1013.8 0.2
20/08:30pm 1.8 -3.8 0.2 89 0.6 WSW 19 24 10 13 1013.4 - 0.2
20/08:00pm 2.1 -3.0 0.9 92 0.5 WSW 17 22 9 12 1012.9 - 0.2
20/07:30pm 3.1 -1.8 2.1 93 0.4 WSW 17 24 9 13 1012.6 - 0.2
20/07:00pm 4.0 -1.3 2.8 92 0.5 WSW 20 26 11 14 1012.3 - 0.2
20/06:30pm 4.7 0.9 4.0 95 0.3 WSW 13 17 7 9 1011.9 - 0.2
20/06:00pm 5.4 -0.4 4.2 92 0.5 WSW 24 35 13 19 1011.2 1011.1 0.2
20/05:30pm 5.8 0.0 4.4 91 0.6 WSW 24 37 13 20 1010.9 - 0.2
20/05:00pm 7.0 1.5 5.9 93 0.5 WSW 24 32 13 17 1010.5 - 0.2
20/04:30pm 7.2 2.5 6.0 92 0.6 W 20 28 11 15 1010.2 - 0.0
20/04:00pm 8.2 2.2 5.5 83 1.3 W 26 37 14 20 1010.0 - 0.0
20/03:30pm 8.0 2.3 6.6 91 0.7 W 26 35 14 19 1009.9 - 0.0
20/03:00pm 9.5 2.3 6.0 79 1.7 W 33 44 18 24 1009.4 1009.2 0.0
20/02:30pm 8.6 2.8 6.1 84 1.2 W 26 39 14 21 1009.2 - 0.0
20/02:00pm 9.1 1.9 5.1 76 1.9 W 32 50 17 27 1009.2 - 0.0
20/01:50pm 8.9 2.5 5.1 77 1.8 WNW 28 48 15 26 1009.1 - 0.0
20/01:30pm 9.1 3.2 5.7 79 1.6 WNW 26 39 14 21 1009.3 - 0.0
20/01:00pm 9.1 1.8 4.7 74 2.1 W 32 43 17 23 1009.5 - 0.0
20/12:30pm 9.1 1.8 4.7 74 2.1 W 32 44 17 24 1009.8 - 0.0
20/12:13pm 8.8 0.8 4.0 72 2.2 W 35 54 19 29 1009.9 - 0.0
20/12:00pm 9.2 2.4 5.0 75 2.0 W 30 44 16 24 1010.2 1010.0 0.0
20/11:30am 9.0 2.1 4.6 74 2.1 W 30 50 16 27 1010.5 - 0.0
20/11:22am 7.7 0.7 3.9 77 1.7 W 30 50 16 27 1010.6 - 0.0
20/11:00am 7.9 1.7 4.5 79 1.6 W 26 44 14 24 1010.7 - 0.0
20/10:30am 7.6 2.5 4.2 79 1.6 W 20 32 11 17 1011.0 - 0.0
20/10:00am 7.1 0.0 3.7 79 1.5 W 30 41 16 22 1011.0 - 0.0
20/09:30am 6.6 0.7 4.1 84 1.1 W 24 33 13 18 1011.1 - 0.0
20/09:00am 5.4 -0.2 3.4 87 0.9 W 22 32 12 17 1011.2 1011.1 0.2
20/08:30am 4.5 -1.2 2.7 88 0.8 W 22 30 12 16 1011.2 - 0.2
20/08:00am 4.1 -1.7 2.3 88 0.8 W 22 35 12 19 1011.1 - 0.2
20/07:30am 3.9 -0.9 2.4 90 0.6 WNW 17 24 9 13 1011.0 - 0.2
20/07:00am 3.5 0.5 2.0 90 0.6 WNW 7 15 4 8 1010.9 - 0.2
20/06:30am 3.5 -0.3 2.0 90 0.6 W 11 20 6 11 1010.9 - 0.2
20/06:00am 3.4 -1.1 2.1 91 0.6 WNW 15 22 8 12 1010.7 1010.6 0.2
20/05:30am 2.9 -1.7 1.6 91 0.5 W 15 22 8 12 1010.9 - 0.2
20/05:00am 2.2 -2.1 1.0 92 0.5 W 13 24 7 13 1010.5 - 0.2
20/04:30am 2.1 -2.6 0.9 92 0.5 W 15 22 8 12 1010.7 - 0.2
20/04:00am 1.3 -2.8 0.0 91 0.5 W 11 20 6 11 1011.0 - 0.2
20/03:30am 2.2 -1.8 0.7 90 0.6 WNW 11 17 6 9 1011.1 - 0.2
20/03:00am 1.9 -2.4 0.7 92 0.5 W 13 17 7 9 1011.3 1011.2 0.2
20/02:30am 1.1 -2.9 0.4 95 0.3 W 11 15 6 8 1011.7 - 0.2
20/02:00am 0.2 -3.6 -0.6 94 0.3 W 9 13 5 7 1012.2 - 0.2
20/01:30am 0.3 -4.2 -0.5 94 0.3 W 13 19 7 10 1012.4 - 0.2
20/01:00am 0.1 -4.8 -0.3 97 0.2 WNW 15 22 8 12 1012.5 - 0.2
20/12:30am -0.3 -5.7 -1.0 95 0.2 WNW 17 24 9 13 1012.6 - 0.2
20/12:00am 0.5 -4.0 -0.6 92 0.4 WNW 13 17 7 9 1012.7 1012.6 0.2
 
Date/Time
EST
Temp
°C
App
Temp
°C
Dew
Point
Rel
Hum
%
Delta-T
°C
Wind Press
QNH
hPa
Press
MSL
hPa
Rain
since 9 am
mm
Dir
 
Spd
km/h
Gust
km/h
Spd
kts
Gust
kts
19/11:30pm -0.2 -4.1 -1.3 92 0.4 WNW 9 11 5 6 1012.9 - 0.2
19/11:00pm 0.2 -4.0 -0.9 92 0.4 WNW 11 13 6 7 1013.1 - 0.2
19/10:30pm 0.9 -3.3 -0.7 89 0.6 WNW 11 13 6 7 1013.6 - 0.2
19/10:00pm 1.4 -2.7 -0.4 88 0.7 W 11 13 6 7 1014.2 - 0.2
19/09:30pm 2.0 -2.1 -0.1 86 0.8 W 11 13 6 7 1014.3 - 0.2
19/09:00pm 2.3 -1.4 0.2 86 0.8 W 9 11 5 6 1014.4 1014.3 0.2
19/08:30pm 2.3 -2.1 0.4 87 0.8 W 13 20 7 11 1014.5 - 0.2
19/08:00pm 1.4 -2.0 -0.4 88 0.7 WNW 7 9 4 5 1014.3 - 0.2
19/07:30pm 2.5 -1.9 0.1 84 1.0 W 13 17 7 9 1014.4 - 0.2
19/07:00pm 3.3 -1.0 1.2 86 0.9 WSW 13 17 7 9 1014.4 - 0.2
19/06:30pm 3.6 -0.7 1.3 85 1.0 WSW 13 17 7 9 1014.2 - 0.2
19/06:00pm 4.2 2.0 1.1 80 1.3 W 2 7 1 4 1014.1 1014.0 0.2
19/05:30pm 4.2 1.0 0.7 78 1.4 SSW 7 9 4 5 1014.2 - 0.2
19/05:00pm 4.5 0.1 0.6 76 1.6 SW 13 17 7 9 1014.2 - 0.2
19/04:30pm 5.0 0.3 0.6 73 1.8 WSW 15 22 8 12 1014.2 - 0.2
19/04:00pm 5.6 0.2 1.3 74 1.8 SW 19 24 10 13 1014.3 - 0.2
19/03:30pm 6.2 1.7 1.9 74 1.9 W 15 26 8 14 1014.2 - 0.2
19/03:00pm 6.5 1.1 1.4 70 2.2 SW 19 28 10 15 1014.1 1014.0 0.2
19/02:30pm 7.3 2.0 1.8 68 2.4 WSW 19 24 10 13 1014.2 - 0.2
19/02:00pm 6.0 1.1 1.9 75 1.8 SW 17 30 9 16 1014.2 - 0.2
19/01:30pm 7.6 1.9 2.9 72 2.1 SW 22 32 12 17 1014.1 - 0.2
19/01:00pm 7.5 1.3 2.2 69 2.3 WSW 24 35 13 19 1014.2 - 0.2
19/12:30pm 5.4 -0.2 1.3 75 1.7 SW 20 28 11 15 1014.7 - 0.2
19/12:00pm 5.4 -0.4 2.1 79 1.4 SW 22 32 12 17 1015.0 1014.9 0.0
19/11:30am 5.1 -1.2 1.8 79 1.4 SW 24 32 13 17 1015.1 - 0.0
19/11:00am 5.7 -1.3 1.8 76 1.7 SW 28 43 15 23 1015.0 - 0.0
19/10:30am 4.2 -2.9 1.2 81 1.3 SW 28 39 15 21 1015.0 - 0.0
19/10:00am 3.6 -3.9 1.3 85 1.0 SW 30 41 16 22 1014.8 - 0.0
19/09:30am 3.0 -4.1 1.2 88 0.7 SSW 28 37 15 20 1014.8 - 0.0
19/09:00am 3.0 -4.8 1.8 92 0.5 SW 32 39 17 21 1014.7 1014.7 1.0
19/08:30am 2.4 -3.9 1.7 95 0.3 SW 24 32 13 17 1014.6 - 1.0
19/08:00am 1.9 -4.0 1.5 97 0.2 SW 22 32 12 17 1014.5 - 1.0
19/07:30am 1.5 -4.9 1.1 97 0.2 SW 24 33 13 18 1014.2 - 1.0
19/07:00am 1.4 -5.8 0.7 95 0.3 SW 28 35 15 19 1013.7 - 1.0
19/06:30am 1.4 -5.1 0.5 94 0.4 SW 24 33 13 18 1013.5 - 1.0
19/06:00am 1.2 -6.1 0.0 92 0.5 SW 28 39 15 21 1013.4 1013.3 1.0
19/05:30am 1.5 -5.0 0.6 94 0.4 SW 24 39 13 21 1013.5 - 1.0
19/05:00am 1.4 -4.7 0.5 94 0.4 SW 22 30 12 16 1013.2 - 1.0
19/04:30am 1.5 -4.2 0.6 94 0.4 SW 20 30 11 16 1013.2 - 1.0
19/04:00am 1.2 -4.3 0.3 94 0.4 SW 19 30 10 16 1012.9 - 1.0
19/03:30am 1.6 -4.4 1.0 96 0.2 SW 22 30 12 16 1013.0 - 1.0
19/03:00am 1.3 -5.2 0.6 95 0.3 SW 24 33 13 18 1012.6 1012.5 1.0
19/02:30am 1.6 -4.8 1.0 96 0.2 SW 24 32 13 17 1012.7 - 1.0
19/02:00am 1.6 -4.0 1.0 96 0.2 SW 20 33 11 18 1012.7 - 1.0
19/01:30am 1.7 -5.8 1.1 96 0.2 SW 30 43 16 23 1012.7 - 1.0
19/01:00am 1.5 -5.7 0.9 96 0.2 SW 28 39 15 21 1012.7 - 1.0
19/12:30am 1.6 -4.8 1.0 96 0.2 SW 24 33 13 18 1012.7 - 1.0
19/12:00am 1.4 -6.2 0.5 94 0.4 WSW 30 41 16 22 1012.5 1012.4 1.0
 
Date/Time
EST
Temp
°C
App
Temp
°C
Dew
Point
Rel
Hum
%
Delta-T
°C
Wind Press
QNH
hPa
Press
MSL
hPa
Rain
since 9 am
mm
Dir
 
Spd
km/h
Gust
km/h
Spd
kts
Gust
kts
18/11:38pm 1.6 -6.5 0.7 94 0.4 SW 33 52 18 28 1012.6 - 1.0
18/11:30pm 1.7 -6.8 0.8 94 0.4 SW 35 50 19 27 1012.7 - 1.0
18/11:00pm 1.8 -6.1 0.8 93 0.4 SW 32 43 17 23 1012.6 - 1.0
18/10:30pm 2.1 -6.5 0.5 89 0.6 SW 35 46 19 25 1012.5 - 1.0
18/10:00pm 1.8 -7.6 0.0 88 0.7 SW 39 57 21 31 1012.4 - 1.0
18/09:30pm 2.1 -7.3 0.2 87 0.8 SW 39 50 21 27 1012.4 - 1.0
18/09:00pm 2.0 -6.0 0.5 90 0.6 SW 32 44 17 24 1012.4 1012.3 1.0
18/08:30pm 2.2 -6.0 0.6 89 0.6 SW 33 46 18 25 1012.2 - 1.0
18/08:00pm 2.5 -5.0 1.5 93 0.4 SW 30 43 16 23 1012.1 - 1.0
18/07:30pm 2.8 -5.2 1.5 91 0.5 SW 33 46 18 25 1012.0 - 1.0
18/07:00pm 3.0 -5.0 1.4 89 0.7 SW 33 48 18 26 1011.7 - 1.0

Other Formats:

Comma delimited format used in spreadsheet applications
http://www.bom.gov.au/fwo/IDT60801/IDT60801.95959.axf

JavaScript Object Notation format (JSON) in row-major order
http://www.bom.gov.au/fwo/IDT60801/IDT60801.95959.json